sensor_id;sensor_type;location;lat;lon;timestamp;temperature;humidity
69893;DHT22;61212;42.688;22.176;2022-07-22T00:37:13;512.80;2380.80
69893;DHT22;61212;42.688;22.176;2022-07-22T00:39:39;512.50;2380.80
69893;DHT22;61212;42.688;22.176;2022-07-22T00:46:57;512.40;2380.80
69893;DHT22;61212;42.688;22.176;2022-07-22T00:49:23;512.10;2380.80
69893;DHT22;61212;42.688;22.176;2022-07-22T00:51:48;512.00;2380.80
69893;DHT22;61212;42.688;22.176;2022-07-22T00:54:14;512.10;2380.80
69893;DHT22;61212;42.688;22.176;2022-07-22T00:56:40;512.00;2380.80
69893;DHT22;61212;42.688;22.176;2022-07-22T00:59:08;512.10;2380.80
69893;DHT22;61212;42.688;22.176;2022-07-22T01:01:34;512.10;2380.80
69893;DHT22;61212;42.688;22.176;2022-07-22T01:04:00;512.10;2380.80
69893;DHT22;61212;42.688;22.176;2022-07-22T01:06:26;512.10;2380.80
69893;DHT22;61212;42.688;22.176;2022-07-22T01:08:52;512.20;2252.80
69893;DHT22;61212;42.688;22.176;2022-07-22T01:11:19;512.30;1996.80
69893;DHT22;61212;42.688;22.176;2022-07-22T01:13:45;512.30;2380.80
69893;DHT22;61212;42.688;22.176;2022-07-22T01:16:13;512.10;2150.40
69893;DHT22;61212;42.688;22.176;2022-07-22T01:18:40;512.20;2380.80
69893;DHT22;61212;42.688;22.176;2022-07-22T01:21:07;512.10;2380.80
69893;DHT22;61212;42.688;22.176;2022-07-22T01:23:33;487.30;2380.80
69893;DHT22;61212;42.688;22.176;2022-07-22T01:25:59;487.30;2380.80
69893;DHT22;61212;42.688;22.176;2022-07-22T01:28:25;487.10;2380.80
69893;DHT22;61212;42.688;22.176;2022-07-22T01:30:51;486.90;2380.80
69893;DHT22;61212;42.688;22.176;2022-07-22T01:33:19;487.20;2380.80
69893;DHT22;61212;42.688;22.176;2022-07-22T01:35:45;486.90;2380.80
69893;DHT22;61212;42.688;22.176;2022-07-22T01:38:11;486.80;2380.80
69893;DHT22;61212;42.688;22.176;2022-07-22T01:40:37;486.90;2380.80
69893;DHT22;61212;42.688;22.176;2022-07-22T01:43:04;486.80;2380.80
69893;DHT22;61212;42.688;22.176;2022-07-22T01:45:29;486.80;2380.80
69893;DHT22;61212;42.688;22.176;2022-07-22T01:47:55;486.70;2380.80
69893;DHT22;61212;42.688;22.176;2022-07-22T01:50:21;486.60;2380.80
69893;DHT22;61212;42.688;22.176;2022-07-22T01:52:47;486.90;2380.80
69893;DHT22;61212;42.688;22.176;2022-07-22T01:55:13;486.80;2380.80
69893;DHT22;61212;42.688;22.176;2022-07-22T01:57:39;486.80;2380.80
69893;DHT22;61212;42.688;22.176;2022-07-22T02:00:07;486.90;2380.80
69893;DHT22;61212;42.688;22.176;2022-07-22T02:02:34;486.90;2380.80
69893;DHT22;61212;42.688;22.176;2022-07-22T02:05:00;486.90;2380.80
69893;DHT22;61212;42.688;22.176;2022-07-22T02:07:26;486.80;2380.80
69893;DHT22;61212;42.688;22.176;2022-07-22T02:09:55;486.80;2380.80
69893;DHT22;61212;42.688;22.176;2022-07-22T02:12:20;486.70;2380.80
69893;DHT22;61212;42.688;22.176;2022-07-22T02:14:46;486.70;2380.80
69893;DHT22;61212;42.688;22.176;2022-07-22T02:17:13;486.70;2380.80
69893;DHT22;61212;42.688;22.176;2022-07-22T02:19:39;486.50;2380.80
69893;DHT22;61212;42.688;22.176;2022-07-22T02:34:18;461.70;2380.80
69893;DHT22;61212;42.688;22.176;2022-07-22T02:36:43;461.50;2048.00
69893;DHT22;61212;42.688;22.176;2022-07-22T02:39:09;461.40;2380.80
69893;DHT22;61212;42.688;22.176;2022-07-22T02:41:35;461.30;2380.80
69893;DHT22;61212;42.688;22.176;2022-07-22T02:44:01;461.40;2380.80
69893;DHT22;61212;42.688;22.176;2022-07-22T02:46:28;461.60;2380.80
69893;DHT22;61212;42.688;22.176;2022-07-22T02:48:54;461.50;2380.80
69893;DHT22;61212;42.688;22.176;2022-07-22T02:51:20;461.60;2380.80
69893;DHT22;61212;42.688;22.176;2022-07-22T02:53:46;461.70;2380.80
69893;DHT22;61212;42.688;22.176;2022-07-22T02:56:12;486.40;2380.80
69893;DHT22;61212;42.688;22.176;2022-07-22T02:58:39;486.40;2380.80
69893;DHT22;61212;42.688;22.176;2022-07-22T03:01:05;486.40;2380.80
69893;DHT22;61212;42.688;22.176;2022-07-22T03:03:31;486.40;2380.80
69893;DHT22;61212;42.688;22.176;2022-07-22T03:05:57;486.40;2380.80
69893;DHT22;61212;42.688;22.176;2022-07-22T03:08:23;461.70;2380.80
69893;DHT22;61212;42.688;22.176;2022-07-22T03:10:48;486.50;2380.80
69893;DHT22;61212;42.688;22.176;2022-07-22T03:13:14;461.70;2380.80
69893;DHT22;61212;42.688;22.176;2022-07-22T03:15:40;486.40;2380.80
69893;DHT22;61212;42.688;22.176;2022-07-22T03:18:06;486.60;2380.80
69893;DHT22;61212;42.688;22.176;2022-07-22T03:20:32;486.40;2380.80
69893;DHT22;61212;42.688;22.176;2022-07-22T03:22:59;486.40;2380.80
69893;DHT22;61212;42.688;22.176;2022-07-22T03:25:24;486.50;2380.80
69893;DHT22;61212;42.688;22.176;2022-07-22T03:27:50;461.70;2380.80
69893;DHT22;61212;42.688;22.176;2022-07-22T03:30:16;461.70;2380.80
69893;DHT22;61212;42.688;22.176;2022-07-22T03:32:42;486.40;2380.80
69893;DHT22;61212;42.688;22.176;2022-07-22T03:35:11;461.60;2380.80
69893;DHT22;61212;42.688;22.176;2022-07-22T03:37:37;461.30;2380.80
69893;DHT22;61212;42.688;22.176;2022-07-22T03:40:03;461.10;2329.60
69893;DHT22;61212;42.688;22.176;2022-07-22T03:42:29;461.30;2380.80
69893;DHT22;61212;42.688;22.176;2022-07-22T03:44:55;460.90;2380.80
69893;DHT22;61212;42.688;22.176;2022-07-22T03:47:22;461.10;2380.80
69893;DHT22;61212;42.688;22.176;2022-07-22T03:49:50;460.90;2380.80
69893;DHT22;61212;42.688;22.176;2022-07-22T03:52:16;460.80;2380.80
69893;DHT22;61212;42.688;22.176;2022-07-22T03:54:42;460.80;2380.80
69893;DHT22;61212;42.688;22.176;2022-07-22T03:57:09;461.00;2380.80
69893;DHT22;61212;42.688;22.176;2022-07-22T03:59:35;436.10;2355.20
69893;DHT22;61212;42.688;22.176;2022-07-22T04:02:01;436.10;2355.20
69893;DHT22;61212;42.688;22.176;2022-07-22T04:04:27;460.80;2380.80
69893;DHT22;61212;42.688;22.176;2022-07-22T04:06:53;461.10;2380.80
69893;DHT22;61212;42.688;22.176;2022-07-22T04:09:19;461.20;2380.80
69893;DHT22;61212;42.688;22.176;2022-07-22T04:14:12;461.20;2380.80
69893;DHT22;61212;42.688;22.176;2022-07-22T04:16:38;461.20;2380.80
69893;DHT22;61212;42.688;22.176;2022-07-22T04:19:04;461.00;2380.80
69893;DHT22;61212;42.688;22.176;2022-07-22T04:21:30;461.40;2380.80
69893;DHT22;61212;42.688;22.176;2022-07-22T04:23:56;461.60;2380.80
69893;DHT22;61212;42.688;22.176;2022-07-22T04:26:22;486.70;2380.80
69893;DHT22;61212;42.688;22.176;2022-07-22T04:28:48;486.70;2380.80
69893;DHT22;61212;42.688;22.176;2022-07-22T04:31:14;486.80;2380.80
69893;DHT22;61212;42.688;22.176;2022-07-22T04:33:40;487.00;2380.80
69893;DHT22;61212;42.688;22.176;2022-07-22T04:36:06;512.30;2380.80
69893;DHT22;61212;42.688;22.176;2022-07-22T04:38:32;512.20;2380.80
69893;DHT22;61212;42.688;22.176;2022-07-22T04:40:58;512.60;1996.80
69893;DHT22;61212;42.688;22.176;2022-07-22T04:43:24;512.70;2380.80
69893;DHT22;61212;42.688;22.176;2022-07-22T04:53:08;537.70;2406.40
69893;DHT22;61212;42.688;22.176;2022-07-22T04:55:34;512.90;2380.80
69893;DHT22;61212;42.688;22.176;2022-07-22T05:12:37;538.50;2406.40
69893;DHT22;61212;42.688;22.176;2022-07-22T05:15:03;538.20;2406.40
69893;DHT22;61212;42.688;22.176;2022-07-22T05:39:26;588.90;2432.00
69893;DHT22;61212;42.688;22.176;2022-07-22T05:41:52;588.80;2432.00
69893;DHT22;61212;42.688;22.176;2022-07-22T05:44:18;588.90;2432.00
69893;DHT22;61212;42.688;22.176;2022-07-22T05:46:43;589.10;2432.00
69893;DHT22;61212;42.688;22.176;2022-07-22T05:49:09;589.60;2432.00
69893;DHT22;61212;42.688;22.176;2022-07-22T05:51:35;589.50;2432.00
69893;DHT22;61212;42.688;22.176;2022-07-22T05:54:01;614.40;2432.00
69893;DHT22;61212;42.688;22.176;2022-07-22T05:56:28;614.50;2432.00
69893;DHT22;61212;42.688;22.176;2022-07-22T05:58:54;614.50;2432.00
69893;DHT22;61212;42.688;22.176;2022-07-22T06:01:21;614.50;2432.00
69893;DHT22;61212;42.688;22.176;2022-07-22T06:03:47;614.50;2432.00
69893;DHT22;61212;42.688;22.176;2022-07-22T06:06:13;614.60;2432.00
69893;DHT22;61212;42.688;22.176;2022-07-22T07:39:23;0.00;1689.60
69893;DHT22;61212;42.688;22.176;2022-07-22T12:27:03;845.70;998.40
69893;DHT22;61212;42.688;22.176;2022-07-22T12:32:02;845.70;947.20
69893;DHT22;61212;42.688;22.176;2022-07-22T12:34:40;845.60;947.20
69893;DHT22;61212;42.688;22.176;2022-07-22T12:42:20;845.40;998.40
69893;DHT22;61212;42.688;22.176;2022-07-22T12:45:17;845.40;998.40
69893;DHT22;61212;42.688;22.176;2022-07-22T12:47:52;845.40;998.40
69893;DHT22;61212;42.688;22.176;2022-07-22T12:50:31;845.40;972.80
69893;DHT22;61212;42.688;22.176;2022-07-22T14:18:16;870.50;972.80
69893;DHT22;61212;42.688;22.176;2022-07-22T17:33:34;768.40;2227.20
69893;DHT22;61212;42.688;22.176;2022-07-22T17:38:26;743.30;2380.80
69893;DHT22;61212;42.688;22.176;2022-07-22T17:40:52;743.20;2432.00
69893;DHT22;61212;42.688;22.176;2022-07-22T17:43:17;743.10;2432.00
69893;DHT22;61212;42.688;22.176;2022-07-22T17:45:43;743.00;2432.00
69893;DHT22;61212;42.688;22.176;2022-07-22T17:48:09;742.90;2432.00
69893;DHT22;61212;42.688;22.176;2022-07-22T17:50:37;742.90;2432.00
69893;DHT22;61212;42.688;22.176;2022-07-22T19:47:56;666.10;2432.00
69893;DHT22;61212;42.688;22.176;2022-07-22T20:14:52;665.60;2432.00
69893;DHT22;61212;42.688;22.176;2022-07-22T20:17:17;640.80;2432.00
69893;DHT22;61212;42.688;22.176;2022-07-22T20:19:43;640.50;2432.00
69893;DHT22;61212;42.688;22.176;2022-07-22T20:22:09;640.30;2432.00
69893;DHT22;61212;42.688;22.176;2022-07-22T20:24:35;640.20;2432.00
69893;DHT22;61212;42.688;22.176;2022-07-22T20:27:02;640.20;2432.00
69893;DHT22;61212;42.688;22.176;2022-07-22T20:29:27;640.30;2432.00
69893;DHT22;61212;42.688;22.176;2022-07-22T20:31:53;640.30;2432.00
69893;DHT22;61212;42.688;22.176;2022-07-22T20:34:19;640.00;2432.00
69893;DHT22;61212;42.688;22.176;2022-07-22T20:36:46;615.20;2432.00
69893;DHT22;61212;42.688;22.176;2022-07-22T20:39:12;615.10;2432.00
69893;DHT22;61212;42.688;22.176;2022-07-22T20:41:38;615.00;2432.00
69893;DHT22;61212;42.688;22.176;2022-07-22T20:44:04;614.80;2432.00
69893;DHT22;61212;42.688;22.176;2022-07-22T20:46:30;614.80;2432.00
69893;DHT22;61212;42.688;22.176;2022-07-22T20:48:55;614.80;2432.00
69893;DHT22;61212;42.688;22.176;2022-07-22T20:51:21;614.80;2432.00
69893;DHT22;61212;42.688;22.176;2022-07-22T20:53:47;614.80;2432.00
69893;DHT22;61212;42.688;22.176;2022-07-22T20:56:13;614.80;2432.00
69893;DHT22;61212;42.688;22.176;2022-07-22T20:58:42;614.80;2432.00
69893;DHT22;61212;42.688;22.176;2022-07-22T21:01:07;614.60;2432.00
69893;DHT22;61212;42.688;22.176;2022-07-22T21:03:33;614.70;2432.00
69893;DHT22;61212;42.688;22.176;2022-07-22T21:06:00;614.80;2432.00
69893;DHT22;61212;42.688;22.176;2022-07-22T21:08:25;614.80;2432.00
69893;DHT22;61212;42.688;22.176;2022-07-22T21:10:51;614.50;2432.00
69893;DHT22;61212;42.688;22.176;2022-07-22T21:49:52;589.40;2432.00
69893;DHT22;61212;42.688;22.176;2022-07-22T21:52:18;589.20;2432.00
69893;DHT22;61212;42.688;22.176;2022-07-22T22:02:02;589.20;2432.00
69893;DHT22;61212;42.688;22.176;2022-07-22T22:04:29;588.90;2432.00
69893;DHT22;61212;42.688;22.176;2022-07-22T22:06:58;564.10;2432.00
69893;DHT22;61212;42.688;22.176;2022-07-22T22:09:24;564.00;2432.00
69893;DHT22;61212;42.688;22.176;2022-07-22T22:11:51;563.90;2432.00
69893;DHT22;61212;42.688;22.176;2022-07-22T22:14:17;564.00;2432.00
